createdAt,value
2023-02-20T00:01:59.982Z,21.56
2023-02-20T00:05:03.170Z,21.54
2023-02-20T00:08:06.557Z,21.54
2023-02-20T00:11:09.633Z,21.53
2023-02-20T00:14:12.508Z,21.55
2023-02-20T00:17:16.818Z,21.56
2023-02-20T00:20:22.147Z,21.58
2023-02-20T00:23:25.224Z,21.58
2023-02-20T00:26:28.059Z,21.61
2023-02-20T00:29:32.343Z,21.62
2023-02-20T00:32:38.258Z,21.64
2023-02-20T00:35:41.139Z,21.65
2023-02-20T00:38:44.295Z,21.64
2023-02-20T00:41:47.373Z,21.64
2023-02-20T00:44:51.195Z,21.64
2023-02-20T00:47:55.460Z,21.66
2023-02-20T00:51:00.474Z,21.64
2023-02-20T00:54:03.415Z,21.65
2023-02-20T00:57:06.263Z,21.65
2023-02-20T01:00:13.854Z,21.64
2023-02-20T01:03:18.111Z,21.65
2023-02-20T01:06:21.030Z,21.65
2023-02-20T01:09:23.959Z,21.64
2023-02-20T01:12:26.835Z,21.64
2023-02-20T01:15:29.660Z,21.63
2023-02-20T01:18:34.795Z,21.65
2023-02-20T01:21:38.545Z,21.64
2023-02-20T01:24:42.013Z,21.63
2023-02-20T01:27:44.861Z,21.64
2023-02-20T01:30:47.768Z,21.63
2023-02-20T01:33:51.971Z,21.63
2023-02-20T01:36:56.345Z,21.61
2023-02-20T01:40:01.821Z,21.61
2023-02-20T01:43:05.469Z,21.60
2023-02-20T01:46:45.064Z,21.60
2023-02-20T01:49:55.924Z,21.60
2023-02-20T01:53:04.111Z,21.59
2023-02-20T01:56:10.324Z,21.60
2023-02-20T01:59:13.841Z,21.59
2023-02-20T02:02:17.321Z,21.60
2023-02-20T02:05:23.019Z,21.59
2023-02-20T02:08:30.780Z,21.59
2023-02-20T02:11:34.083Z,21.58
2023-02-20T02:14:39.767Z,21.59
2023-02-20T02:18:03.531Z,21.59
2023-02-20T02:21:51.874Z,21.58
2023-02-20T02:25:34.590Z,21.56
2023-02-20T02:29:06.435Z,21.56
2023-02-20T02:32:31.597Z,21.57
2023-02-20T02:36:13.273Z,21.57
2023-02-20T02:39:24.914Z,21.55
2023-02-20T02:42:38.336Z,21.56
2023-02-20T02:45:47.887Z,21.58
2023-02-20T02:48:58.433Z,21.58
2023-02-20T02:52:03.718Z,21.57
2023-02-20T02:55:09.970Z,21.56
2023-02-20T02:58:14.968Z,21.57
2023-02-20T03:01:21.035Z,21.56
2023-02-20T03:04:29.852Z,21.55
2023-02-20T03:07:35.467Z,21.55
2023-02-20T03:10:40.030Z,21.55
2023-02-20T03:14:05.194Z,21.55
2023-02-20T03:17:12.031Z,21.54
2023-02-20T03:20:18.608Z,21.55
2023-02-20T03:23:26.489Z,21.54
2023-02-20T03:26:34.539Z,21.55
2023-02-20T03:29:40.968Z,21.58
2023-02-20T03:33:03.744Z,21.58
2023-02-20T03:36:27.434Z,21.60
2023-02-20T03:39:51.585Z,21.62
2023-02-20T03:43:19.491Z,21.66
2023-02-20T03:46:25.782Z,21.67
2023-02-20T03:49:33.604Z,21.69
2023-02-20T03:52:36.641Z,21.70
2023-02-20T03:55:40.565Z,21.72
2023-02-20T03:58:55.162Z,21.73
2023-02-20T04:02:02.372Z,21.73
2023-02-20T04:05:09.057Z,21.74
2023-02-20T04:08:19.219Z,21.73
2023-02-20T04:11:26.542Z,21.74
2023-02-20T04:14:31.968Z,21.73
2023-02-20T04:17:44.639Z,21.72
2023-02-20T04:20:54.267Z,21.71
2023-02-20T04:24:10.111Z,21.70
2023-02-20T04:27:14.084Z,21.69
2023-02-20T04:30:25.476Z,21.66
2023-02-20T04:33:28.621Z,21.64
2023-02-20T04:36:37.823Z,21.63
2023-02-20T04:39:41.903Z,21.62
2023-02-20T04:42:46.123Z,21.62
2023-02-20T04:45:50.660Z,21.62
2023-02-20T04:48:54.631Z,21.61
2023-02-20T04:51:57.664Z,21.61
2023-02-20T04:55:00.632Z,21.61
2023-02-20T04:58:03.833Z,21.59
2023-02-20T05:01:21.805Z,21.58
2023-02-20T05:04:25.063Z,21.57
2023-02-20T05:07:27.940Z,21.56
2023-02-20T05:10:32.123Z,21.54
2023-02-20T05:13:34.973Z,21.53
2023-02-20T05:16:40.695Z,21.54
2023-02-20T05:19:43.640Z,21.53
2023-02-20T05:22:46.014Z,21.53
2023-02-20T05:25:48.996Z,21.52
2023-02-20T05:28:51.861Z,21.52
2023-02-20T05:31:56.318Z,21.52
2023-02-20T05:34:59.321Z,21.53
2023-02-20T05:38:02.287Z,21.53
2023-02-20T05:41:05.323Z,21.55
2023-02-20T05:44:08.212Z,21.56
2023-02-20T05:47:12.540Z,21.56
2023-02-20T05:50:15.595Z,21.58
2023-02-20T05:53:18.628Z,21.58
2023-02-20T05:56:21.997Z,21.59
2023-02-20T05:59:25.239Z,21.59
2023-02-20T06:02:33.821Z,21.61
2023-02-20T06:05:36.769Z,21.61
2023-02-20T06:08:40.498Z,21.61
2023-02-20T06:11:48.972Z,21.62
2023-02-20T06:14:51.911Z,21.61
2023-02-20T06:17:56.283Z,21.61
2023-02-20T06:20:59.213Z,21.61
2023-02-20T06:24:02.081Z,21.60
2023-02-20T06:27:06.504Z,21.60
2023-02-20T06:30:10.555Z,21.59
2023-02-20T06:33:14.836Z,21.58
2023-02-20T06:36:22.962Z,21.56
2023-02-20T06:39:25.867Z,21.56
2023-02-20T06:42:28.779Z,21.56
2023-02-20T06:45:31.645Z,21.55
2023-02-20T06:48:35.959Z,21.56
2023-02-20T06:51:40.321Z,21.57
2023-02-20T06:54:43.980Z,21.58
2023-02-20T06:57:46.907Z,21.57
2023-02-20T07:00:50.574Z,21.58
2023-02-20T07:03:55.411Z,21.57
2023-02-20T07:06:59.721Z,21.56
2023-02-20T07:10:02.669Z,21.56
2023-02-20T07:13:06.294Z,21.54
2023-02-20T07:16:09.701Z,21.56
2023-02-20T07:19:14.223Z,21.54
2023-02-20T07:22:17.126Z,21.55
2023-02-20T07:25:19.983Z,21.55
2023-02-20T07:28:22.861Z,21.54
2023-02-20T07:31:26.375Z,21.56
2023-02-20T07:34:31.034Z,21.55
2023-02-20T07:37:34.198Z,21.58
2023-02-20T07:40:39.679Z,21.58
2023-02-20T07:43:42.938Z,21.59
2023-02-20T07:46:45.838Z,21.58
2023-02-20T07:49:50.236Z,21.60
2023-02-20T07:52:53.079Z,21.60
2023-02-20T07:55:55.998Z,21.62
2023-02-20T07:59:00.861Z,21.64
2023-02-20T08:02:04.281Z,21.65
2023-02-20T08:05:08.730Z,21.68
2023-02-20T08:08:11.682Z,21.69
2023-02-20T08:11:14.621Z,21.69
2023-02-20T08:14:17.736Z,21.70
2023-02-20T08:17:20.678Z,21.72
2023-02-20T08:20:26.027Z,21.73
2023-02-20T08:23:29.110Z,21.74
2023-02-20T08:26:34.175Z,21.74
2023-02-20T08:29:37.141Z,21.74
2023-02-20T08:32:40.161Z,21.74
2023-02-20T08:35:44.561Z,21.74
2023-02-20T08:38:47.429Z,21.72
2023-02-20T08:41:50.407Z,21.72
2023-02-20T08:44:53.315Z,21.70
2023-02-20T08:48:01.827Z,21.71
2023-02-20T08:51:06.922Z,21.69
2023-02-20T08:54:09.857Z,21.71
2023-02-20T08:57:12.841Z,21.71
2023-02-20T09:00:17.685Z,21.72
2023-02-20T09:03:20.646Z,21.73
2023-02-20T09:06:26.124Z,21.73
2023-02-20T09:09:30.112Z,21.75
2023-02-20T09:12:33.375Z,21.71
2023-02-20T09:15:39.849Z,21.50
2023-02-20T09:18:43.119Z,21.31
2023-02-20T09:21:49.313Z,21.29
2023-02-20T09:24:52.774Z,21.31
2023-02-20T09:27:55.734Z,21.37
2023-02-20T09:31:00.658Z,21.44
2023-02-20T09:34:04.309Z,21.52
2023-02-20T09:37:09.558Z,21.62
2023-02-20T09:40:13.736Z,21.72
2023-02-20T09:43:31.622Z,21.81
2023-02-20T09:46:35.414Z,21.89
2023-02-20T09:49:39.784Z,21.97
2023-02-20T09:52:46.036Z,22.02
2023-02-20T09:55:50.274Z,22.06
2023-02-20T09:59:00.255Z,22.07
2023-02-20T10:02:13.765Z,22.10
2023-02-20T10:05:23.116Z,22.09
2023-02-20T10:08:27.359Z,22.07
2023-02-20T10:11:49.941Z,22.05
2023-02-20T10:15:13.402Z,22.03
2023-02-20T10:18:29.146Z,22.00
2023-02-20T10:21:46.994Z,21.97
2023-02-20T10:25:02.523Z,21.94
2023-02-20T10:28:09.453Z,21.92
2023-02-20T10:31:27.786Z,21.91
2023-02-20T10:34:33.742Z,21.89
2023-02-20T10:37:47.411Z,21.86
2023-02-20T10:41:01.248Z,21.85
2023-02-20T10:44:12.011Z,21.83
2023-02-20T10:47:21.173Z,21.82
2023-02-20T10:50:30.355Z,21.81
2023-02-20T10:53:41.957Z,21.81
2023-02-20T10:56:53.452Z,21.79
2023-02-20T11:00:05.181Z,21.77
2023-02-20T11:03:11.575Z,21.77
2023-02-20T11:06:17.188Z,21.77
2023-02-20T11:09:20.161Z,21.77
2023-02-20T11:12:31.490Z,21.78
2023-02-20T11:15:36.695Z,21.78
2023-02-20T11:18:40.965Z,21.77
2023-02-20T11:21:48.078Z,21.78
2023-02-20T11:24:51.218Z,21.77
2023-02-20T11:27:58.086Z,21.76
2023-02-20T11:31:04.453Z,21.75
2023-02-20T11:34:07.759Z,21.75
2023-02-20T11:37:15.642Z,21.74
2023-02-20T11:40:25.039Z,21.73
2023-02-20T11:43:32.873Z,21.75
2023-02-20T11:46:35.871Z,21.75
2023-02-20T11:49:39.607Z,21.76
2023-02-20T11:53:02.297Z,21.76
2023-02-20T11:56:11.385Z,21.78
2023-02-20T11:59:38.052Z,21.77
2023-02-20T12:02:56.664Z,21.78
2023-02-20T12:06:01.180Z,21.79
2023-02-20T12:09:06.332Z,21.79
2023-02-20T12:12:12.126Z,21.78
2023-02-20T12:15:17.935Z,21.77
2023-02-20T12:18:41.587Z,21.77
2023-02-20T12:21:54.528Z,21.76
2023-02-20T12:25:11.536Z,21.76
2023-02-20T12:28:22.396Z,21.75
2023-02-20T12:31:40.829Z,21.75
2023-02-20T12:34:58.467Z,21.74
2023-02-20T12:38:23.967Z,21.75
2023-02-20T12:41:35.525Z,21.75
2023-02-20T12:45:05.858Z,21.75
2023-02-20T12:48:25.752Z,21.74
2023-02-20T12:51:38.276Z,21.74
2023-02-20T12:54:49.427Z,21.74
2023-02-20T12:58:06.384Z,21.74
2023-02-20T13:01:12.953Z,21.73
2023-02-20T13:04:26.864Z,21.74
2023-02-20T13:07:36.512Z,21.73
2023-02-20T13:10:51.969Z,21.74
2023-02-20T13:14:05.874Z,21.73
2023-02-20T13:17:22.462Z,21.74
2023-02-20T13:20:29.451Z,21.74
2023-02-20T13:23:35.867Z,21.75
2023-02-20T13:26:49.543Z,21.74
2023-02-20T13:30:03.851Z,21.75
2023-02-20T13:33:14.424Z,21.74
2023-02-20T13:36:35.488Z,21.75
2023-02-20T13:39:43.352Z,21.75
2023-02-20T13:42:46.262Z,21.73
2023-02-20T13:45:50.727Z,21.73
2023-02-20T13:48:56.266Z,21.73
2023-02-20T13:52:01.297Z,21.73
2023-02-20T13:55:14.507Z,21.75
2023-02-20T13:58:17.850Z,21.74
2023-02-20T14:01:20.681Z,21.75
2023-02-20T14:04:24.425Z,21.77
2023-02-20T14:07:34.879Z,21.78
2023-02-20T14:10:39.051Z,21.77
2023-02-20T14:13:46.635Z,21.79
2023-02-20T14:16:49.622Z,21.78
2023-02-20T14:20:08.614Z,21.78
2023-02-20T14:23:25.305Z,21.78
2023-02-20T14:26:31.125Z,21.79
2023-02-20T14:29:37.588Z,21.77
2023-02-20T14:32:44.583Z,21.77
2023-02-20T14:36:03.112Z,21.79
2023-02-20T14:39:24.401Z,21.78
2023-02-20T14:42:27.578Z,21.78
2023-02-20T14:45:32.461Z,21.78
2023-02-20T14:48:38.400Z,21.78
2023-02-20T14:51:41.372Z,21.80
2023-02-20T14:54:56.947Z,21.81
2023-02-20T14:57:59.827Z,21.80
2023-02-20T15:01:02.771Z,21.80
2023-02-20T15:04:11.860Z,21.82
2023-02-20T15:07:14.907Z,21.82
2023-02-20T15:10:37.058Z,21.82
2023-02-20T15:13:42.380Z,21.82
2023-02-20T15:16:45.345Z,21.82
2023-02-20T15:19:49.159Z,21.83
2023-02-20T15:22:52.475Z,21.84
2023-02-20T15:25:57.191Z,21.84
2023-02-20T15:29:22.226Z,21.85
2023-02-20T15:32:26.626Z,21.86
2023-02-20T15:35:32.695Z,21.86
2023-02-20T15:38:36.993Z,21.87
2023-02-20T15:41:42.198Z,21.88
2023-02-20T15:44:45.260Z,21.80
2023-02-20T15:47:48.159Z,21.64
2023-02-20T15:50:51.606Z,21.61
2023-02-20T15:53:54.928Z,21.60
2023-02-20T15:56:59.498Z,21.61
2023-02-20T16:00:02.413Z,21.63
2023-02-20T16:03:05.815Z,21.66
2023-02-20T16:06:08.965Z,21.71
2023-02-20T16:09:12.022Z,21.76
2023-02-20T16:12:22.284Z,21.82
2023-02-20T16:15:26.433Z,21.87
2023-02-20T16:18:29.317Z,21.92
2023-02-20T16:21:32.178Z,21.95
2023-02-20T16:24:36.376Z,21.97
2023-02-20T16:27:40.876Z,21.97
2023-02-20T16:30:46.119Z,21.99
2023-02-20T16:33:49.479Z,22.01
2023-02-20T16:36:52.898Z,22.01
2023-02-20T16:39:55.975Z,22.00
2023-02-20T16:43:00.261Z,22.00
2023-02-20T16:46:03.179Z,22.01
2023-02-20T16:49:06.118Z,22.01
2023-02-20T16:52:17.722Z,22.01
2023-02-20T16:55:22.978Z,22.01
2023-02-20T16:58:27.385Z,22.02
2023-02-20T17:01:30.275Z,22.02
2023-02-20T17:04:33.813Z,22.03
2023-02-20T17:07:37.280Z,22.03
2023-02-20T17:10:40.667Z,22.05
2023-02-20T17:13:44.915Z,22.05
2023-02-20T17:16:50.013Z,22.07
2023-02-20T17:19:55.379Z,22.05
2023-02-20T17:23:05.069Z,22.06
2023-02-20T17:26:09.579Z,22.07
2023-02-20T17:29:14.214Z,22.05
2023-02-20T17:32:18.582Z,22.06
2023-02-20T17:35:21.540Z,22.06
2023-02-20T17:38:25.405Z,22.06
2023-02-20T17:41:28.287Z,22.07
2023-02-20T17:44:32.738Z,22.06
2023-02-20T17:47:37.336Z,22.07
2023-02-20T17:50:40.355Z,22.06
2023-02-20T17:53:43.246Z,22.07
2023-02-20T17:56:46.730Z,22.07
2023-02-20T17:59:51.558Z,22.06
2023-02-20T18:02:54.496Z,22.07
2023-02-20T18:05:57.428Z,22.06
2023-02-20T18:09:00.923Z,22.06
2023-02-20T18:12:04.444Z,22.06
2023-02-20T18:15:09.521Z,22.08
2023-02-20T18:18:14.697Z,22.10
2023-02-20T18:21:18.921Z,22.10
2023-02-20T18:24:25.338Z,22.11
2023-02-20T18:27:28.705Z,22.10
2023-02-20T18:30:33.629Z,22.12
2023-02-20T18:33:37.169Z,22.11
2023-02-20T18:36:40.478Z,22.12
2023-02-20T18:39:45.486Z,22.10
2023-02-20T18:42:48.294Z,22.13
2023-02-20T18:45:52.807Z,22.13
2023-02-20T18:48:55.791Z,22.13
2023-02-20T18:51:58.676Z,22.13
2023-02-20T18:55:02.415Z,22.13
2023-02-20T18:58:05.302Z,22.14
2023-02-20T19:01:09.498Z,22.15
2023-02-20T19:04:13.204Z,22.16
2023-02-20T19:07:16.082Z,22.16
2023-02-20T19:10:22.075Z,22.16
2023-02-20T19:13:24.965Z,22.16
2023-02-20T19:16:29.598Z,22.17
2023-02-20T19:19:34.425Z,22.17
2023-02-20T19:22:37.360Z,22.16
2023-02-20T19:25:42.609Z,22.15
2023-02-20T19:28:45.739Z,22.17
2023-02-20T19:31:50.454Z,22.17
2023-02-20T19:34:53.323Z,22.17
2023-02-20T19:37:56.238Z,22.18
2023-02-20T19:40:59.028Z,22.19
2023-02-20T19:44:02.214Z,22.20
2023-02-20T19:47:06.870Z,22.20
2023-02-20T19:50:11.873Z,22.20
2023-02-20T19:53:16.236Z,22.19
2023-02-20T19:56:19.373Z,22.19
2023-02-20T19:59:22.459Z,22.17
2023-02-20T20:02:26.776Z,22.18
2023-02-20T20:05:29.740Z,22.18
2023-02-20T20:08:32.660Z,22.19
2023-02-20T20:11:36.000Z,22.20
2023-02-20T20:14:38.985Z,22.20
2023-02-20T20:17:43.175Z,22.19
2023-02-20T20:20:46.451Z,22.19
2023-02-20T20:23:49.497Z,22.19
2023-02-20T20:26:52.324Z,22.21
2023-02-20T20:29:55.207Z,22.20
2023-02-20T20:32:59.671Z,22.21
2023-02-20T20:36:02.610Z,22.21
2023-02-20T20:39:06.159Z,22.20
2023-02-20T20:42:09.234Z,22.21
2023-02-20T20:45:14.105Z,22.20
2023-02-20T20:48:18.398Z,22.21
2023-02-20T20:51:23.228Z,22.21
2023-02-20T20:54:26.078Z,22.21
2023-02-20T20:57:30.712Z,22.21
2023-02-20T21:00:35.109Z,22.21
2023-02-20T21:03:39.379Z,22.19
2023-02-20T21:06:42.360Z,22.20
2023-02-20T21:09:45.362Z,22.21
2023-02-20T21:12:48.703Z,22.21
2023-02-20T21:15:51.629Z,22.21
2023-02-20T21:18:55.996Z,22.22
2023-02-20T21:21:58.964Z,22.24
2023-02-20T21:25:02.100Z,22.23
2023-02-20T21:28:05.581Z,22.23
2023-02-20T21:31:08.577Z,22.23
2023-02-20T21:34:16.501Z,22.23
2023-02-20T21:37:20.170Z,22.23
2023-02-20T21:40:23.014Z,22.23
2023-02-20T21:43:43.260Z,22.22
2023-02-20T21:46:46.232Z,22.23
2023-02-20T21:49:50.527Z,22.23
2023-02-20T21:52:53.379Z,22.25
2023-02-20T21:55:56.291Z,22.25
2023-02-20T21:59:06.293Z,22.25
2023-02-20T22:02:15.020Z,22.25
2023-02-20T22:05:18.285Z,22.24
2023-02-20T22:08:38.500Z,22.25
2023-02-20T22:11:59.104Z,22.25
2023-02-20T22:15:19.845Z,22.25
2023-02-20T22:18:40.194Z,22.26
2023-02-20T22:22:02.084Z,22.25
2023-02-20T22:25:23.070Z,22.25
2023-02-20T22:28:43.287Z,22.25
2023-02-20T22:32:03.755Z,22.26
2023-02-20T22:35:25.085Z,22.26
2023-02-20T22:38:46.695Z,22.27
2023-02-20T22:42:07.510Z,22.26
2023-02-20T22:45:29.284Z,22.26
2023-02-20T22:48:49.615Z,22.25
2023-02-20T22:52:10.494Z,22.25
2023-02-20T22:55:32.471Z,22.25
2023-02-20T22:58:52.566Z,22.24
2023-02-20T23:02:12.949Z,22.22
2023-02-20T23:05:33.896Z,22.20
2023-02-20T23:08:54.083Z,22.16
2023-02-20T23:12:15.805Z,22.13
2023-02-20T23:15:36.288Z,22.08
2023-02-20T23:18:56.380Z,22.05
2023-02-20T23:22:16.861Z,22.03
2023-02-20T23:25:37.198Z,22.00
2023-02-20T23:28:59.137Z,21.99
2023-02-20T23:32:20.047Z,21.96
2023-02-20T23:35:40.440Z,21.95
2023-02-20T23:39:00.789Z,21.93
2023-02-20T23:42:20.991Z,21.92
2023-02-20T23:45:43.402Z,21.91
2023-02-20T23:49:03.794Z,21.89
2023-02-20T23:52:24.115Z,21.88
2023-02-20T23:55:44.360Z,21.87
2023-02-20T23:59:04.855Z,21.87
